sensor_id;sensor_type;location;lat;lon;timestamp;temperature;humidity
5697;DHT22;2873;50.966;7.210;2023-05-10T00:00:13;15.10;99.90
5697;DHT22;2873;50.966;7.210;2023-05-10T00:02:39;15.20;99.90
5697;DHT22;2873;50.966;7.210;2023-05-10T00:05:05;15.20;99.90
5697;DHT22;2873;50.966;7.210;2023-05-10T00:07:31;15.20;99.90
5697;DHT22;2873;50.966;7.210;2023-05-10T00:09:57;15.20;99.90
5697;DHT22;2873;50.966;7.210;2023-05-10T00:12:22;15.20;99.90
5697;DHT22;2873;50.966;7.210;2023-05-10T00:14:48;15.10;99.90
5697;DHT22;2873;50.966;7.210;2023-05-10T00:17:14;15.20;99.90
5697;DHT22;2873;50.966;7.210;2023-05-10T00:19:39;15.20;99.90
5697;DHT22;2873;50.966;7.210;2023-05-10T00:22:05;15.30;99.90
5697;DHT22;2873;50.966;7.210;2023-05-10T00:24:31;15.20;99.90
5697;DHT22;2873;50.966;7.210;2023-05-10T00:26:56;15.30;99.90
5697;DHT22;2873;50.966;7.210;2023-05-10T00:29:22;15.20;99.90
5697;DHT22;2873;50.966;7.210;2023-05-10T00:31:47;15.30;99.90
5697;DHT22;2873;50.966;7.210;2023-05-10T00:34:13;15.30;99.90
5697;DHT22;2873;50.966;7.210;2023-05-10T00:36:38;15.30;99.90
5697;DHT22;2873;50.966;7.210;2023-05-10T00:39:04;15.20;99.90
5697;DHT22;2873;50.966;7.210;2023-05-10T00:41:30;15.20;99.90
5697;DHT22;2873;50.966;7.210;2023-05-10T00:43:58;15.20;99.90
5697;DHT22;2873;50.966;7.210;2023-05-10T00:46:24;15.10;99.90
5697;DHT22;2873;50.966;7.210;2023-05-10T00:48:50;15.10;99.90
5697;DHT22;2873;50.966;7.210;2023-05-10T00:51:16;15.10;99.90
5697;DHT22;2873;50.966;7.210;2023-05-10T00:53:44;15.10;99.90
5697;DHT22;2873;50.966;7.210;2023-05-10T00:56:10;15.10;99.90
5697;DHT22;2873;50.966;7.210;2023-05-10T00:58:36;15.10;99.90
5697;DHT22;2873;50.966;7.210;2023-05-10T01:01:02;15.10;99.90
5697;DHT22;2873;50.966;7.210;2023-05-10T01:03:28;15.00;99.90
5697;DHT22;2873;50.966;7.210;2023-05-10T01:05:54;15.00;99.90
5697;DHT22;2873;50.966;7.210;2023-05-10T01:08:20;15.00;99.90
5697;DHT22;2873;50.966;7.210;2023-05-10T01:10:46;14.80;99.90
5697;DHT22;2873;50.966;7.210;2023-05-10T01:13:12;15.00;99.90
5697;DHT22;2873;50.966;7.210;2023-05-10T01:15:38;15.10;99.90
5697;DHT22;2873;50.966;7.210;2023-05-10T01:18:05;15.00;99.90
5697;DHT22;2873;50.966;7.210;2023-05-10T01:20:40;15.00;99.90
5697;DHT22;2873;50.966;7.210;2023-05-10T01:23:31;14.80;99.90
5697;DHT22;2873;50.966;7.210;2023-05-10T01:32:15;15.00;99.90
5697;DHT22;2873;50.966;7.210;2023-05-10T01:34:59;15.00;99.90
5697;DHT22;2873;50.966;7.210;2023-05-10T01:37:41;15.00;99.90
5697;DHT22;2873;50.966;7.210;2023-05-10T01:42:51;14.90;99.90
5697;DHT22;2873;50.966;7.210;2023-05-10T01:48:09;15.00;99.90
5697;DHT22;2873;50.966;7.210;2023-05-10T01:50:38;15.00;99.90
5697;DHT22;2873;50.966;7.210;2023-05-10T01:53:07;15.00;99.90
5697;DHT22;2873;50.966;7.210;2023-05-10T01:55:39;15.10;99.90
5697;DHT22;2873;50.966;7.210;2023-05-10T01:58:13;15.00;99.90
5697;DHT22;2873;50.966;7.210;2023-05-10T02:00:44;15.00;99.90
5697;DHT22;2873;50.966;7.210;2023-05-10T02:03:11;15.10;99.90
5697;DHT22;2873;50.966;7.210;2023-05-10T02:05:37;15.00;99.90
5697;DHT22;2873;50.966;7.210;2023-05-10T02:08:06;14.90;99.90
5697;DHT22;2873;50.966;7.210;2023-05-10T02:10:34;15.10;99.90
5697;DHT22;2873;50.966;7.210;2023-05-10T02:13:00;14.90;99.90
5697;DHT22;2873;50.966;7.210;2023-05-10T02:15:27;15.00;99.90
5697;DHT22;2873;50.966;7.210;2023-05-10T02:17:55;14.70;99.90
5697;DHT22;2873;50.966;7.210;2023-05-10T02:20:23;14.60;99.90
5697;DHT22;2873;50.966;7.210;2023-05-10T02:22:51;14.80;99.90
5697;DHT22;2873;50.966;7.210;2023-05-10T02:25:19;14.90;99.90
5697;DHT22;2873;50.966;7.210;2023-05-10T02:27:47;14.90;99.90
5697;DHT22;2873;50.966;7.210;2023-05-10T02:30:14;14.90;99.90
5697;DHT22;2873;50.966;7.210;2023-05-10T02:32:40;15.00;99.90
5697;DHT22;2873;50.966;7.210;2023-05-10T02:35:07;15.00;99.90
5697;DHT22;2873;50.966;7.210;2023-05-10T02:37:36;15.00;99.90
5697;DHT22;2873;50.966;7.210;2023-05-10T02:40:04;15.00;99.90
5697;DHT22;2873;50.966;7.210;2023-05-10T02:42:32;15.00;99.90
5697;DHT22;2873;50.966;7.210;2023-05-10T02:45:03;15.00;99.90
5697;DHT22;2873;50.966;7.210;2023-05-10T02:47:30;15.00;99.90
5697;DHT22;2873;50.966;7.210;2023-05-10T02:49:56;15.00;99.90
5697;DHT22;2873;50.966;7.210;2023-05-10T02:52:25;15.10;99.90
5697;DHT22;2873;50.966;7.210;2023-05-10T02:54:55;15.00;99.90
5697;DHT22;2873;50.966;7.210;2023-05-10T02:57:28;14.90;99.90
5697;DHT22;2873;50.966;7.210;2023-05-10T02:59:54;15.00;99.90
5697;DHT22;2873;50.966;7.210;2023-05-10T03:02:20;15.00;99.90
5697;DHT22;2873;50.966;7.210;2023-05-10T03:04:46;15.00;99.90
5697;DHT22;2873;50.966;7.210;2023-05-10T03:07:11;14.90;99.90
5697;DHT22;2873;50.966;7.210;2023-05-10T03:09:37;15.00;99.90
5697;DHT22;2873;50.966;7.210;2023-05-10T03:15:13;15.00;99.90
5697;DHT22;2873;50.966;7.210;2023-05-10T03:17:46;15.00;99.90
5697;DHT22;2873;50.966;7.210;2023-05-10T03:20:35;15.00;99.90
5697;DHT22;2873;50.966;7.210;2023-05-10T03:23:11;14.90;99.90
5697;DHT22;2873;50.966;7.210;2023-05-10T03:25:37;15.00;99.90
5697;DHT22;2873;50.966;7.210;2023-05-10T03:28:05;15.00;99.90
5697;DHT22;2873;50.966;7.210;2023-05-10T03:30:31;15.00;99.90
5697;DHT22;2873;50.966;7.210;2023-05-10T03:32:58;15.00;99.90
5697;DHT22;2873;50.966;7.210;2023-05-10T03:35:29;15.00;99.90
5697;DHT22;2873;50.966;7.210;2023-05-10T03:37:54;15.00;99.90
5697;DHT22;2873;50.966;7.210;2023-05-10T03:40:20;15.10;99.90
5697;DHT22;2873;50.966;7.210;2023-05-10T03:42:45;15.00;99.90
5697;DHT22;2873;50.966;7.210;2023-05-10T03:45:11;15.10;99.90
5697;DHT22;2873;50.966;7.210;2023-05-10T03:47:36;15.10;99.90
5697;DHT22;2873;50.966;7.210;2023-05-10T03:50:02;15.00;99.90
5697;DHT22;2873;50.966;7.210;2023-05-10T03:52:27;15.10;99.90
5697;DHT22;2873;50.966;7.210;2023-05-10T03:54:53;15.10;99.90
5697;DHT22;2873;50.966;7.210;2023-05-10T03:57:18;15.00;99.90
5697;DHT22;2873;50.966;7.210;2023-05-10T03:59:44;15.10;99.90
5697;DHT22;2873;50.966;7.210;2023-05-10T04:02:10;15.10;99.90
5697;DHT22;2873;50.966;7.210;2023-05-10T04:04:35;15.10;99.90
5697;DHT22;2873;50.966;7.210;2023-05-10T04:07:01;15.10;99.90
5697;DHT22;2873;50.966;7.210;2023-05-10T04:09:27;15.10;99.90
5697;DHT22;2873;50.966;7.210;2023-05-10T04:11:52;15.10;99.90
5697;DHT22;2873;50.966;7.210;2023-05-10T04:14:18;15.10;99.90
5697;DHT22;2873;50.966;7.210;2023-05-10T04:16:43;15.20;99.90
5697;DHT22;2873;50.966;7.210;2023-05-10T04:19:09;15.10;99.90
5697;DHT22;2873;50.966;7.210;2023-05-10T04:21:34;15.10;99.90
5697;DHT22;2873;50.966;7.210;2023-05-10T04:24:00;15.20;99.90
5697;DHT22;2873;50.966;7.210;2023-05-10T04:26:25;15.10;99.90
5697;DHT22;2873;50.966;7.210;2023-05-10T04:28:51;15.10;99.90
5697;DHT22;2873;50.966;7.210;2023-05-10T04:31:16;15.20;99.90
5697;DHT22;2873;50.966;7.210;2023-05-10T04:33:42;15.20;99.90
5697;DHT22;2873;50.966;7.210;2023-05-10T04:36:08;15.30;99.90
5697;DHT22;2873;50.966;7.210;2023-05-10T04:38:34;15.20;99.90
5697;DHT22;2873;50.966;7.210;2023-05-10T04:41:10;15.20;99.90
5697;DHT22;2873;50.966;7.210;2023-05-10T04:43:36;15.30;99.90
5697;DHT22;2873;50.966;7.210;2023-05-10T04:46:03;15.20;99.90
5697;DHT22;2873;50.966;7.210;2023-05-10T04:48:29;15.20;99.90
5697;DHT22;2873;50.966;7.210;2023-05-10T04:50:55;15.10;99.90
5697;DHT22;2873;50.966;7.210;2023-05-10T04:53:20;15.20;99.90
5697;DHT22;2873;50.966;7.210;2023-05-10T04:55:46;15.10;99.90
5697;DHT22;2873;50.966;7.210;2023-05-10T04:58:12;15.10;99.90
5697;DHT22;2873;50.966;7.210;2023-05-10T05:00:37;15.10;99.90
5697;DHT22;2873;50.966;7.210;2023-05-10T05:03:03;15.10;99.90
5697;DHT22;2873;50.966;7.210;2023-05-10T05:05:29;15.10;99.90
5697;DHT22;2873;50.966;7.210;2023-05-10T05:07:54;14.90;99.90
5697;DHT22;2873;50.966;7.210;2023-05-10T05:10:20;14.70;99.90
5697;DHT22;2873;50.966;7.210;2023-05-10T05:12:46;14.70;99.90
5697;DHT22;2873;50.966;7.210;2023-05-10T05:15:11;14.90;99.90
5697;DHT22;2873;50.966;7.210;2023-05-10T05:17:37;14.80;99.90
5697;DHT22;2873;50.966;7.210;2023-05-10T05:20:02;14.80;99.90
5697;DHT22;2873;50.966;7.210;2023-05-10T05:22:28;14.80;99.90
5697;DHT22;2873;50.966;7.210;2023-05-10T05:24:54;14.90;99.90
5697;DHT22;2873;50.966;7.210;2023-05-10T05:27:20;14.90;99.90
5697;DHT22;2873;50.966;7.210;2023-05-10T05:29:50;14.90;99.90
5697;DHT22;2873;50.966;7.210;2023-05-10T05:32:16;14.90;99.90
5697;DHT22;2873;50.966;7.210;2023-05-10T05:34:43;14.80;99.90
5697;DHT22;2873;50.966;7.210;2023-05-10T05:37:13;14.80;99.90
5697;DHT22;2873;50.966;7.210;2023-05-10T05:39:39;14.80;99.90
5697;DHT22;2873;50.966;7.210;2023-05-10T05:42:04;14.80;99.90
5697;DHT22;2873;50.966;7.210;2023-05-10T05:44:30;14.80;99.90
5697;DHT22;2873;50.966;7.210;2023-05-10T05:46:55;14.80;99.90
5697;DHT22;2873;50.966;7.210;2023-05-10T05:49:21;14.80;99.90
5697;DHT22;2873;50.966;7.210;2023-05-10T05:51:47;14.80;99.90
5697;DHT22;2873;50.966;7.210;2023-05-10T05:54:14;14.80;99.90
5697;DHT22;2873;50.966;7.210;2023-05-10T05:56:40;14.90;99.90
5697;DHT22;2873;50.966;7.210;2023-05-10T05:59:05;15.00;99.90
5697;DHT22;2873;50.966;7.210;2023-05-10T06:01:31;14.90;99.90
5697;DHT22;2873;50.966;7.210;2023-05-10T06:03:56;15.00;99.90
5697;DHT22;2873;50.966;7.210;2023-05-10T06:06:22;15.00;99.90
5697;DHT22;2873;50.966;7.210;2023-05-10T06:08:47;15.10;99.90
5697;DHT22;2873;50.966;7.210;2023-05-10T06:11:13;15.10;99.90
5697;DHT22;2873;50.966;7.210;2023-05-10T06:13:38;15.10;99.90
5697;DHT22;2873;50.966;7.210;2023-05-10T06:16:04;15.10;99.90
5697;DHT22;2873;50.966;7.210;2023-05-10T06:18:30;15.10;99.90
5697;DHT22;2873;50.966;7.210;2023-05-10T06:20:56;15.20;99.90
5697;DHT22;2873;50.966;7.210;2023-05-10T06:23:22;15.20;99.90
5697;DHT22;2873;50.966;7.210;2023-05-10T06:25:48;15.20;99.90
5697;DHT22;2873;50.966;7.210;2023-05-10T06:28:13;15.20;99.90
5697;DHT22;2873;50.966;7.210;2023-05-10T06:30:39;15.30;99.90
5697;DHT22;2873;50.966;7.210;2023-05-10T06:33:04;15.30;99.90
5697;DHT22;2873;50.966;7.210;2023-05-10T06:35:30;15.20;99.90
5697;DHT22;2873;50.966;7.210;2023-05-10T06:37:57;15.00;99.90
5697;DHT22;2873;50.966;7.210;2023-05-10T06:40:22;15.00;99.90
5697;DHT22;2873;50.966;7.210;2023-05-10T06:42:48;15.00;99.90
5697;DHT22;2873;50.966;7.210;2023-05-10T06:45:14;15.10;99.90
5697;DHT22;2873;50.966;7.210;2023-05-10T06:47:41;15.10;99.90
5697;DHT22;2873;50.966;7.210;2023-05-10T06:50:08;15.10;99.90
5697;DHT22;2873;50.966;7.210;2023-05-10T06:52:34;15.10;99.90
5697;DHT22;2873;50.966;7.210;2023-05-10T06:54:59;15.10;99.90
5697;DHT22;2873;50.966;7.210;2023-05-10T06:57:25;15.10;99.90
5697;DHT22;2873;50.966;7.210;2023-05-10T06:59:51;15.20;99.90
5697;DHT22;2873;50.966;7.210;2023-05-10T07:02:17;15.10;99.90
5697;DHT22;2873;50.966;7.210;2023-05-10T07:04:43;15.20;99.90
5697;DHT22;2873;50.966;7.210;2023-05-10T07:07:08;15.20;99.90
5697;DHT22;2873;50.966;7.210;2023-05-10T07:09:34;15.30;99.90
5697;DHT22;2873;50.966;7.210;2023-05-10T07:11:59;15.30;99.90
5697;DHT22;2873;50.966;7.210;2023-05-10T07:14:27;15.30;99.90
5697;DHT22;2873;50.966;7.210;2023-05-10T07:16:53;15.40;99.90
5697;DHT22;2873;50.966;7.210;2023-05-10T07:19:18;15.40;99.90
5697;DHT22;2873;50.966;7.210;2023-05-10T07:21:45;15.30;99.90
5697;DHT22;2873;50.966;7.210;2023-05-10T07:24:10;15.30;99.90
5697;DHT22;2873;50.966;7.210;2023-05-10T07:26:36;15.30;99.90
5697;DHT22;2873;50.966;7.210;2023-05-10T07:29:02;15.30;99.90
5697;DHT22;2873;50.966;7.210;2023-05-10T07:31:27;15.20;99.90
5697;DHT22;2873;50.966;7.210;2023-05-10T07:33:53;15.10;99.90
5697;DHT22;2873;50.966;7.210;2023-05-10T07:36:19;15.10;99.90
5697;DHT22;2873;50.966;7.210;2023-05-10T07:38:44;14.80;99.90
5697;DHT22;2873;50.966;7.210;2023-05-10T07:41:11;15.00;99.90
5697;DHT22;2873;50.966;7.210;2023-05-10T07:43:37;15.10;99.90
5697;DHT22;2873;50.966;7.210;2023-05-10T07:46:03;15.10;99.90
5697;DHT22;2873;50.966;7.210;2023-05-10T07:48:28;15.10;99.90
5697;DHT22;2873;50.966;7.210;2023-05-10T07:50:54;15.20;99.90
5697;DHT22;2873;50.966;7.210;2023-05-10T07:53:19;15.10;99.90
5697;DHT22;2873;50.966;7.210;2023-05-10T07:55:50;15.10;99.90
5697;DHT22;2873;50.966;7.210;2023-05-10T07:58:16;15.30;99.90
5697;DHT22;2873;50.966;7.210;2023-05-10T08:00:41;15.20;99.90
5697;DHT22;2873;50.966;7.210;2023-05-10T08:03:07;15.20;99.90
5697;DHT22;2873;50.966;7.210;2023-05-10T08:05:32;15.30;99.90
5697;DHT22;2873;50.966;7.210;2023-05-10T08:07:58;15.30;99.90
5697;DHT22;2873;50.966;7.210;2023-05-10T08:10:25;15.40;99.90
5697;DHT22;2873;50.966;7.210;2023-05-10T08:12:50;15.50;99.90
5697;DHT22;2873;50.966;7.210;2023-05-10T08:15:16;15.50;99.90
5697;DHT22;2873;50.966;7.210;2023-05-10T08:17:42;15.40;99.90
5697;DHT22;2873;50.966;7.210;2023-05-10T08:20:08;15.40;99.90
5697;DHT22;2873;50.966;7.210;2023-05-10T08:22:34;15.50;99.90
5697;DHT22;2873;50.966;7.210;2023-05-10T08:24:59;15.50;99.90
5697;DHT22;2873;50.966;7.210;2023-05-10T08:27:25;15.50;99.90
5697;DHT22;2873;50.966;7.210;2023-05-10T08:29:51;15.40;99.90
5697;DHT22;2873;50.966;7.210;2023-05-10T08:32:17;15.50;99.90
5697;DHT22;2873;50.966;7.210;2023-05-10T08:34:42;15.50;99.90
5697;DHT22;2873;50.966;7.210;2023-05-10T08:37:08;15.40;99.90
5697;DHT22;2873;50.966;7.210;2023-05-10T08:39:34;15.30;99.90
5697;DHT22;2873;50.966;7.210;2023-05-10T08:42:03;15.40;99.90
5697;DHT22;2873;50.966;7.210;2023-05-10T08:44:32;15.30;99.90
5697;DHT22;2873;50.966;7.210;2023-05-10T08:46:59;15.30;99.90
5697;DHT22;2873;50.966;7.210;2023-05-10T08:49:27;15.20;99.90
5697;DHT22;2873;50.966;7.210;2023-05-10T08:51:57;15.10;99.90
5697;DHT22;2873;50.966;7.210;2023-05-10T08:54:24;15.20;99.90
5697;DHT22;2873;50.966;7.210;2023-05-10T08:56:50;15.10;99.90
5697;DHT22;2873;50.966;7.210;2023-05-10T08:59:17;15.20;99.90
5697;DHT22;2873;50.966;7.210;2023-05-10T09:01:43;15.20;99.90
5697;DHT22;2873;50.966;7.210;2023-05-10T09:04:10;15.40;99.90
5697;DHT22;2873;50.966;7.210;2023-05-10T09:06:36;15.60;99.90
5697;DHT22;2873;50.966;7.210;2023-05-10T09:09:01;15.70;99.90
5697;DHT22;2873;50.966;7.210;2023-05-10T09:11:28;15.90;99.90
5697;DHT22;2873;50.966;7.210;2023-05-10T09:13:55;16.00;99.90
5697;DHT22;2873;50.966;7.210;2023-05-10T09:16:22;16.20;99.90
5697;DHT22;2873;50.966;7.210;2023-05-10T09:18:47;16.10;99.90
5697;DHT22;2873;50.966;7.210;2023-05-10T09:21:14;16.20;99.90
5697;DHT22;2873;50.966;7.210;2023-05-10T09:23:43;16.40;99.90
5697;DHT22;2873;50.966;7.210;2023-05-10T09:26:09;16.30;99.90
5697;DHT22;2873;50.966;7.210;2023-05-10T09:28:56;16.40;99.90
5697;DHT22;2873;50.966;7.210;2023-05-10T09:31:22;16.30;99.90
5697;DHT22;2873;50.966;7.210;2023-05-10T09:33:49;16.30;99.90
5697;DHT22;2873;50.966;7.210;2023-05-10T09:36:15;16.30;99.90
5697;DHT22;2873;50.966;7.210;2023-05-10T09:38:48;16.10;99.90
5697;DHT22;2873;50.966;7.210;2023-05-10T09:41:19;16.00;99.90
5697;DHT22;2873;50.966;7.210;2023-05-10T09:43:45;16.00;99.90
5697;DHT22;2873;50.966;7.210;2023-05-10T09:46:10;15.90;99.90
5697;DHT22;2873;50.966;7.210;2023-05-10T09:48:46;15.90;99.90
5697;DHT22;2873;50.966;7.210;2023-05-10T09:51:22;15.90;99.90
5697;DHT22;2873;50.966;7.210;2023-05-10T09:53:49;16.00;99.90
5697;DHT22;2873;50.966;7.210;2023-05-10T09:56:34;16.00;99.90
5697;DHT22;2873;50.966;7.210;2023-05-10T09:59:04;16.10;99.90
5697;DHT22;2873;50.966;7.210;2023-05-10T10:01:30;16.20;99.90
5697;DHT22;2873;50.966;7.210;2023-05-10T10:03:56;16.30;99.90
5697;DHT22;2873;50.966;7.210;2023-05-10T10:06:25;16.30;99.90
5697;DHT22;2873;50.966;7.210;2023-05-10T10:08:52;16.40;99.90
5697;DHT22;2873;50.966;7.210;2023-05-10T10:11:18;16.50;99.90
5697;DHT22;2873;50.966;7.210;2023-05-10T10:13:43;16.60;99.90
5697;DHT22;2873;50.966;7.210;2023-05-10T10:16:09;16.60;99.90
5697;DHT22;2873;50.966;7.210;2023-05-10T10:18:36;16.70;99.90
5697;DHT22;2873;50.966;7.210;2023-05-10T10:21:06;16.80;99.90
5697;DHT22;2873;50.966;7.210;2023-05-10T10:23:32;16.70;99.90
5697;DHT22;2873;50.966;7.210;2023-05-10T10:25:58;16.70;99.90
5697;DHT22;2873;50.966;7.210;2023-05-10T10:28:34;16.70;99.90
5697;DHT22;2873;50.966;7.210;2023-05-10T10:34:01;16.90;99.90
5697;DHT22;2873;50.966;7.210;2023-05-10T10:36:29;16.80;99.90
5697;DHT22;2873;50.966;7.210;2023-05-10T10:38:57;16.60;99.90
5697;DHT22;2873;50.966;7.210;2023-05-10T10:41:30;16.50;99.90
5697;DHT22;2873;50.966;7.210;2023-05-10T10:50:05;16.10;99.90
5697;DHT22;2873;50.966;7.210;2023-05-10T10:52:36;16.00;99.90
5697;DHT22;2873;50.966;7.210;2023-05-10T10:57:30;16.20;99.90
5697;DHT22;2873;50.966;7.210;2023-05-10T11:02:48;16.30;99.90
5697;DHT22;2873;50.966;7.210;2023-05-10T11:08:01;16.80;99.90
5697;DHT22;2873;50.966;7.210;2023-05-10T11:10:32;17.20;99.90
5697;DHT22;2873;50.966;7.210;2023-05-10T11:13:01;17.40;99.90
5697;DHT22;2873;50.966;7.210;2023-05-10T11:15:37;17.70;99.90
5697;DHT22;2873;50.966;7.210;2023-05-10T11:18:19;17.90;99.90
5697;DHT22;2873;50.966;7.210;2023-05-10T11:21:00;18.00;99.90
5697;DHT22;2873;50.966;7.210;2023-05-10T11:23:32;18.20;99.90
5697;DHT22;2873;50.966;7.210;2023-05-10T11:25:59;18.40;99.90
5697;DHT22;2873;50.966;7.210;2023-05-10T11:28:26;18.50;99.90
5697;DHT22;2873;50.966;7.210;2023-05-10T11:30:53;18.90;99.90
5697;DHT22;2873;50.966;7.210;2023-05-10T11:33:19;19.20;99.90
5697;DHT22;2873;50.966;7.210;2023-05-10T11:35:45;19.40;99.90
5697;DHT22;2873;50.966;7.210;2023-05-10T11:38:12;19.70;99.90
5697;DHT22;2873;50.966;7.210;2023-05-10T11:40:39;19.70;99.90
5697;DHT22;2873;50.966;7.210;2023-05-10T11:43:05;19.30;99.90
5697;DHT22;2873;50.966;7.210;2023-05-10T11:45:34;19.10;99.90
5697;DHT22;2873;50.966;7.210;2023-05-10T11:48:00;19.10;99.90
5697;DHT22;2873;50.966;7.210;2023-05-10T11:50:26;19.20;99.90
5697;DHT22;2873;50.966;7.210;2023-05-10T11:52:56;19.10;99.90
5697;DHT22;2873;50.966;7.210;2023-05-10T11:55:22;19.00;99.90
5697;DHT22;2873;50.966;7.210;2023-05-10T11:57:52;18.80;99.90
5697;DHT22;2873;50.966;7.210;2023-05-10T12:00:18;18.80;99.90
5697;DHT22;2873;50.966;7.210;2023-05-10T12:02:44;18.40;99.90
5697;DHT22;2873;50.966;7.210;2023-05-10T12:05:10;18.30;99.90
5697;DHT22;2873;50.966;7.210;2023-05-10T12:07:36;18.10;99.90
5697;DHT22;2873;50.966;7.210;2023-05-10T12:12:44;18.00;99.90
5697;DHT22;2873;50.966;7.210;2023-05-10T12:15:21;18.20;99.90
5697;DHT22;2873;50.966;7.210;2023-05-10T12:17:47;18.50;99.90
5697;DHT22;2873;50.966;7.210;2023-05-10T12:20:14;18.80;99.90
5697;DHT22;2873;50.966;7.210;2023-05-10T12:22:43;19.10;99.90
5697;DHT22;2873;50.966;7.210;2023-05-10T12:25:09;19.40;99.90
5697;DHT22;2873;50.966;7.210;2023-05-10T12:27:35;19.70;99.90
5697;DHT22;2873;50.966;7.210;2023-05-10T12:30:02;19.70;99.90
5697;DHT22;2873;50.966;7.210;2023-05-10T12:32:40;19.80;99.90
5697;DHT22;2873;50.966;7.210;2023-05-10T12:35:07;19.50;99.90
5697;DHT22;2873;50.966;7.210;2023-05-10T12:37:33;19.50;99.90
5697;DHT22;2873;50.966;7.210;2023-05-10T12:40:01;19.40;99.90
5697;DHT22;2873;50.966;7.210;2023-05-10T12:42:28;19.20;99.90
5697;DHT22;2873;50.966;7.210;2023-05-10T12:44:57;19.10;99.90
5697;DHT22;2873;50.966;7.210;2023-05-10T12:47:22;19.10;99.90
5697;DHT22;2873;50.966;7.210;2023-05-10T12:49:48;19.10;99.90
5697;DHT22;2873;50.966;7.210;2023-05-10T12:52:13;19.50;99.90
5697;DHT22;2873;50.966;7.210;2023-05-10T12:54:39;19.80;99.90
5697;DHT22;2873;50.966;7.210;2023-05-10T12:57:04;20.10;99.90
5697;DHT22;2873;50.966;7.210;2023-05-10T12:59:30;20.50;99.90
5697;DHT22;2873;50.966;7.210;2023-05-10T13:01:57;20.60;99.90
5697;DHT22;2873;50.966;7.210;2023-05-10T13:04:23;20.90;99.90
5697;DHT22;2873;50.966;7.210;2023-05-10T13:06:48;20.80;99.90
5697;DHT22;2873;50.966;7.210;2023-05-10T13:09:14;20.80;99.90
5697;DHT22;2873;50.966;7.210;2023-05-10T13:11:40;20.70;99.90
5697;DHT22;2873;50.966;7.210;2023-05-10T13:14:06;20.70;99.90
5697;DHT22;2873;50.966;7.210;2023-05-10T13:16:31;20.60;99.90
5697;DHT22;2873;50.966;7.210;2023-05-10T13:18:57;20.70;99.90
5697;DHT22;2873;50.966;7.210;2023-05-10T13:21:23;20.70;99.90
5697;DHT22;2873;50.966;7.210;2023-05-10T13:23:50;20.60;99.90
5697;DHT22;2873;50.966;7.210;2023-05-10T13:26:16;20.50;99.90
5697;DHT22;2873;50.966;7.210;2023-05-10T13:28:41;20.70;99.90
5697;DHT22;2873;50.966;7.210;2023-05-10T13:31:10;20.40;99.90
5697;DHT22;2873;50.966;7.210;2023-05-10T13:33:35;20.40;99.90
5697;DHT22;2873;50.966;7.210;2023-05-10T13:36:01;20.40;99.90
5697;DHT22;2873;50.966;7.210;2023-05-10T13:38:26;20.50;99.90
5697;DHT22;2873;50.966;7.210;2023-05-10T13:40:52;20.40;99.90
5697;DHT22;2873;50.966;7.210;2023-05-10T13:43:18;20.50;99.90
5697;DHT22;2873;50.966;7.210;2023-05-10T13:45:44;20.50;99.90
5697;DHT22;2873;50.966;7.210;2023-05-10T13:48:09;20.80;99.90
5697;DHT22;2873;50.966;7.210;2023-05-10T13:50:35;21.10;99.90
5697;DHT22;2873;50.966;7.210;2023-05-10T13:53:00;21.30;99.90
5697;DHT22;2873;50.966;7.210;2023-05-10T13:55:26;21.50;99.90
5697;DHT22;2873;50.966;7.210;2023-05-10T13:57:52;21.60;99.90
5697;DHT22;2873;50.966;7.210;2023-05-10T14:00:18;21.20;99.90
5697;DHT22;2873;50.966;7.210;2023-05-10T14:02:43;20.60;99.90
5697;DHT22;2873;50.966;7.210;2023-05-10T14:05:09;21.20;99.90
5697;DHT22;2873;50.966;7.210;2023-05-10T14:07:34;21.30;99.90
5697;DHT22;2873;50.966;7.210;2023-05-10T14:10:00;21.40;99.90
5697;DHT22;2873;50.966;7.210;2023-05-10T14:12:26;21.10;99.90
5697;DHT22;2873;50.966;7.210;2023-05-10T14:14:51;21.10;99.90
5697;DHT22;2873;50.966;7.210;2023-05-10T14:17:17;21.00;99.90
5697;DHT22;2873;50.966;7.210;2023-05-10T14:19:43;20.80;99.90
5697;DHT22;2873;50.966;7.210;2023-05-10T14:22:09;20.70;99.90
5697;DHT22;2873;50.966;7.210;2023-05-10T14:24:34;20.70;99.90
5697;DHT22;2873;50.966;7.210;2023-05-10T14:27:00;20.70;99.90
5697;DHT22;2873;50.966;7.210;2023-05-10T14:29:26;20.80;99.90
5697;DHT22;2873;50.966;7.210;2023-05-10T14:31:51;19.80;99.90
5697;DHT22;2873;50.966;7.210;2023-05-10T14:34:17;19.80;99.90
5697;DHT22;2873;50.966;7.210;2023-05-10T14:36:42;19.90;99.90
5697;DHT22;2873;50.966;7.210;2023-05-10T14:39:08;20.00;99.90
5697;DHT22;2873;50.966;7.210;2023-05-10T14:41:35;20.00;99.90
5697;DHT22;2873;50.966;7.210;2023-05-10T14:44:00;20.20;99.90
5697;DHT22;2873;50.966;7.210;2023-05-10T14:46:28;20.30;99.90
5697;DHT22;2873;50.966;7.210;2023-05-10T14:48:55;20.30;99.90
5697;DHT22;2873;50.966;7.210;2023-05-10T14:51:20;20.30;99.90
5697;DHT22;2873;50.966;7.210;2023-05-10T14:53:48;20.40;99.90
5697;DHT22;2873;50.966;7.210;2023-05-10T14:56:13;20.40;99.90
5697;DHT22;2873;50.966;7.210;2023-05-10T14:58:39;20.30;99.90
5697;DHT22;2873;50.966;7.210;2023-05-10T15:01:04;20.40;99.90
5697;DHT22;2873;50.966;7.210;2023-05-10T15:03:30;20.40;99.90
5697;DHT22;2873;50.966;7.210;2023-05-10T15:05:56;20.30;99.90
5697;DHT22;2873;50.966;7.210;2023-05-10T15:08:23;20.30;99.90
5697;DHT22;2873;50.966;7.210;2023-05-10T15:10:50;20.30;99.90
5697;DHT22;2873;50.966;7.210;2023-05-10T15:13:15;20.20;99.90
5697;DHT22;2873;50.966;7.210;2023-05-10T15:15:41;20.30;99.90
5697;DHT22;2873;50.966;7.210;2023-05-10T15:18:06;20.30;99.90
5697;DHT22;2873;50.966;7.210;2023-05-10T15:20:32;20.30;99.90
5697;DHT22;2873;50.966;7.210;2023-05-10T15:22:57;20.30;99.90
5697;DHT22;2873;50.966;7.210;2023-05-10T15:25:30;20.40;99.90
5697;DHT22;2873;50.966;7.210;2023-05-10T15:27:55;20.30;99.90
5697;DHT22;2873;50.966;7.210;2023-05-10T15:30:21;20.30;99.90
5697;DHT22;2873;50.966;7.210;2023-05-10T15:32:46;20.20;99.90
5697;DHT22;2873;50.966;7.210;2023-05-10T15:35:12;20.10;99.90
5697;DHT22;2873;50.966;7.210;2023-05-10T15:37:39;20.00;99.90
5697;DHT22;2873;50.966;7.210;2023-05-10T15:40:05;19.90;99.90
5697;DHT22;2873;50.966;7.210;2023-05-10T15:42:31;19.90;99.90
5697;DHT22;2873;50.966;7.210;2023-05-10T15:44:57;19.90;99.90
5697;DHT22;2873;50.966;7.210;2023-05-10T15:47:23;19.90;99.90
5697;DHT22;2873;50.966;7.210;2023-05-10T15:49:49;19.80;99.90
5697;DHT22;2873;50.966;7.210;2023-05-10T15:52:14;20.00;99.90
5697;DHT22;2873;50.966;7.210;2023-05-10T15:54:41;20.00;99.90
5697;DHT22;2873;50.966;7.210;2023-05-10T15:57:06;20.00;99.90
5697;DHT22;2873;50.966;7.210;2023-05-10T15:59:32;19.90;99.90
5697;DHT22;2873;50.966;7.210;2023-05-10T16:01:58;20.00;99.90
5697;DHT22;2873;50.966;7.210;2023-05-10T16:04:23;19.80;99.90
5697;DHT22;2873;50.966;7.210;2023-05-10T16:06:49;19.70;99.90
5697;DHT22;2873;50.966;7.210;2023-05-10T16:09:14;19.60;99.90
5697;DHT22;2873;50.966;7.210;2023-05-10T16:11:42;19.40;99.90
5697;DHT22;2873;50.966;7.210;2023-05-10T16:14:07;19.30;99.90
5697;DHT22;2873;50.966;7.210;2023-05-10T16:16:34;19.10;99.90
5697;DHT22;2873;50.966;7.210;2023-05-10T16:18:59;19.10;99.90
5697;DHT22;2873;50.966;7.210;2023-05-10T16:21:26;19.10;99.90
5697;DHT22;2873;50.966;7.210;2023-05-10T16:23:54;19.00;99.90
5697;DHT22;2873;50.966;7.210;2023-05-10T16:26:19;18.90;99.90
5697;DHT22;2873;50.966;7.210;2023-05-10T16:28:46;18.80;99.90
5697;DHT22;2873;50.966;7.210;2023-05-10T16:31:11;18.70;99.90
5697;DHT22;2873;50.966;7.210;2023-05-10T16:33:37;18.60;99.90